Terminal Aerodrome Forecast
Issued by NWS Houston/Galveston TX

Home | Current Version | Previous Version | Text Only | Print | Product List | Glossary On
Versions: 1 2 3 4 5 6 7 8 9 10 11 12 13 14 15 16 17 18 19 20 21 22 23 24 25 26 27 28 29 30 31 32 33 34 35 36 37 38 39 40 41 42 43 44 45 46 47 48 49 50
000
FTUS44 KHGX 292332
TAFHOU
TAF
KHOU 292332Z 3000/3024 16016G25KT P6SM SCT022 BKN029 OVC250
     FM300600 16011KT 6SM BR VCSH SCT015 BKN025
      TEMPO 3008/3012 -TSRA BKN015CB
     FM301200 19005KT 6SM BR VCSH BKN015
     FM301600 20006KT P6SM SCT025 BKN035
     FM302000 18008KT P6SM VCTS SCT035CB=

USA.gov is the U.S. government's official web portal to all federal, state and local government web resources and services.